sensor_id;sensor_type;location;lat;lon;timestamp;pressure;altitude;pressure_sealevel;temperature
71960;BMP280;59832;51.146;14.024;2023-04-24T00:01:19;97141.44;;;11.09
71960;BMP280;59832;51.146;14.024;2023-04-24T00:03:45;97140.72;;;10.98
71960;BMP280;59832;51.146;14.024;2023-04-24T00:06:12;97141.09;;;10.89
71960;BMP280;59832;51.146;14.024;2023-04-24T00:08:38;97142.22;;;10.81
71960;BMP280;59832;51.146;14.024;2023-04-24T00:11:05;97146.91;;;10.97
71960;BMP280;59832;51.146;14.024;2023-04-24T00:13:31;97130.53;;;11.05
71960;BMP280;59832;51.146;14.024;2023-04-24T00:15:57;97137.44;;;11.08
71960;BMP280;59832;51.146;14.024;2023-04-24T00:18:24;97128.34;;;11.11
71960;BMP280;59832;51.146;14.024;2023-04-24T00:20:50;97122.13;;;11.22
71960;BMP280;59832;51.146;14.024;2023-04-24T00:23:17;97123.88;;;11.36
71960;BMP280;59832;51.146;14.024;2023-04-24T00:25:43;97126.09;;;11.30
71960;BMP280;59832;51.146;14.024;2023-04-24T00:28:10;97112.66;;;11.23
71960;BMP280;59832;51.146;14.024;2023-04-24T00:30:36;97111.22;;;11.22
71960;BMP280;59832;51.146;14.024;2023-04-24T00:33:02;97112.31;;;11.17
71960;BMP280;59832;51.146;14.024;2023-04-24T00:35:29;97110.16;;;11.12
71960;BMP280;59832;51.146;14.024;2023-04-24T00:37:55;97110.19;;;11.02
71960;BMP280;59832;51.146;14.024;2023-04-24T00:40:22;97106.56;;;10.88
71960;BMP280;59832;51.146;14.024;2023-04-24T00:42:48;97099.66;;;10.82
71960;BMP280;59832;51.146;14.024;2023-04-24T00:45:15;97107.31;;;10.75
71960;BMP280;59832;51.146;14.024;2023-04-24T00:47:42;97112.78;;;10.70
71960;BMP280;59832;51.146;14.024;2023-04-24T00:50:08;97118.97;;;10.69
71960;BMP280;59832;51.146;14.024;2023-04-24T00:52:35;97134.59;;;10.67
71960;BMP280;59832;51.146;14.024;2023-04-24T00:55:02;97127.34;;;10.69
71960;BMP280;59832;51.146;14.024;2023-04-24T00:57:29;97133.50;;;10.68
71960;BMP280;59832;51.146;14.024;2023-04-24T00:59:55;97128.41;;;10.68
71960;BMP280;59832;51.146;14.024;2023-04-24T01:02:22;97128.03;;;10.66
71960;BMP280;59832;51.146;14.024;2023-04-24T01:04:50;97126.22;;;10.67
71960;BMP280;59832;51.146;14.024;2023-04-24T01:07:20;97129.84;;;10.83
71960;BMP280;59832;51.146;14.024;2023-04-24T01:09:48;97128.00;;;10.91
71960;BMP280;59832;51.146;14.024;2023-04-24T01:12:18;97122.53;;;11.00
71960;BMP280;59832;51.146;14.024;2023-04-24T01:14:45;97125.47;;;10.95
71960;BMP280;59832;51.146;14.024;2023-04-24T01:17:11;97115.25;;;10.98
71960;BMP280;59832;51.146;14.024;2023-04-24T01:19:38;97115.63;;;11.11
71960;BMP280;59832;51.146;14.024;2023-04-24T01:22:12;97110.53;;;11.11
71960;BMP280;59832;51.146;14.024;2023-04-24T01:24:39;97115.25;;;11.05
71960;BMP280;59832;51.146;14.024;2023-04-24T01:27:07;97110.13;;;11.16
71960;BMP280;59832;51.146;14.024;2023-04-24T01:29:34;97113.06;;;11.11
71960;BMP280;59832;51.146;14.024;2023-04-24T01:32:00;97109.78;;;11.14
71960;BMP280;59832;51.146;14.024;2023-04-24T01:34:27;97112.69;;;11.16
71960;BMP280;59832;51.146;14.024;2023-04-24T01:36:53;97114.84;;;11.21
71960;BMP280;59832;51.146;14.024;2023-04-24T01:39:20;97111.94;;;11.22
71960;BMP280;59832;51.146;14.024;2023-04-24T01:41:46;97113.38;;;11.27
71960;BMP280;59832;51.146;14.024;2023-04-24T01:44:14;97113.38;;;11.27
71960;BMP280;59832;51.146;14.024;2023-04-24T01:46:40;97114.16;;;11.20
71960;BMP280;59832;51.146;14.024;2023-04-24T01:49:07;97122.50;;;11.17
71960;BMP280;59832;51.146;14.024;2023-04-24T01:51:33;97110.47;;;11.14
71960;BMP280;59832;51.146;14.024;2023-04-24T01:54:00;97107.59;;;11.16
71960;BMP280;59832;51.146;14.024;2023-04-24T01:56:28;97118.13;;;11.14
71960;BMP280;59832;51.146;14.024;2023-04-24T01:58:56;97109.06;;;11.10
71960;BMP280;59832;51.146;14.024;2023-04-24T02:01:24;97101.78;;;11.08
71960;BMP280;59832;51.146;14.024;2023-04-24T02:03:51;97107.25;;;11.07
71960;BMP280;59832;51.146;14.024;2023-04-24T02:06:17;97098.56;;;11.04
71960;BMP280;59832;51.146;14.024;2023-04-24T02:08:44;97100.00;;;11.05
71960;BMP280;59832;51.146;14.024;2023-04-24T02:11:10;97102.53;;;11.05
71960;BMP280;59832;51.146;14.024;2023-04-24T02:13:37;97112.00;;;11.05
71960;BMP280;59832;51.146;14.024;2023-04-24T02:16:03;97109.41;;;11.15
71960;BMP280;59832;51.146;14.024;2023-04-24T02:18:30;97110.53;;;11.00
71960;BMP280;59832;51.146;14.024;2023-04-24T02:20:56;97106.16;;;11.08
71960;BMP280;59832;51.146;14.024;2023-04-24T02:23:22;97106.16;;;10.97
71960;BMP280;59832;51.146;14.024;2023-04-24T02:25:49;97110.22;;;10.95
71960;BMP280;59832;51.146;14.024;2023-04-24T02:28:15;97110.22;;;10.95
71960;BMP280;59832;51.146;14.024;2023-04-24T02:30:42;97104.34;;;10.98
71960;BMP280;59832;51.146;14.024;2023-04-24T02:33:08;97108.00;;;11.00
71960;BMP280;59832;51.146;14.024;2023-04-24T02:35:34;97100.34;;;11.00
71960;BMP280;59832;51.146;14.024;2023-04-24T02:38:01;97102.53;;;11.02
71960;BMP280;59832;51.146;14.024;2023-04-24T02:40:27;97102.91;;;11.04
71960;BMP280;59832;51.146;14.024;2023-04-24T02:42:54;97106.91;;;11.01
71960;BMP280;59832;51.146;14.024;2023-04-24T02:45:20;97093.06;;;11.09
71960;BMP280;59832;51.146;14.024;2023-04-24T02:47:47;97096.00;;;11.01
71960;BMP280;59832;51.146;14.024;2023-04-24T02:50:13;97089.44;;;11.00
71960;BMP280;59832;51.146;14.024;2023-04-24T02:52:40;97090.56;;;11.02
71960;BMP280;59832;51.146;14.024;2023-04-24T02:55:06;97091.63;;;11.01
71960;BMP280;59832;51.146;14.024;2023-04-24T02:57:34;97091.28;;;11.03
71960;BMP280;59832;51.146;14.024;2023-04-24T03:00:00;97095.97;;;10.97
71960;BMP280;59832;51.146;14.024;2023-04-24T03:02:27;97093.44;;;10.97
71960;BMP280;59832;51.146;14.024;2023-04-24T03:04:53;97096.00;;;11.04
71960;BMP280;59832;51.146;14.024;2023-04-24T03:07:21;97086.16;;;11.06
71960;BMP280;59832;51.146;14.024;2023-04-24T03:09:47;97088.72;;;11.03
71960;BMP280;59832;51.146;14.024;2023-04-24T03:12:14;97091.25;;;10.99
71960;BMP280;59832;51.146;14.024;2023-04-24T03:14:40;97093.09;;;11.02
71960;BMP280;59832;51.146;14.024;2023-04-24T03:17:07;97093.47;;;11.04
71960;BMP280;59832;51.146;14.024;2023-04-24T03:19:33;97096.34;;;11.10
71960;BMP280;59832;51.146;14.024;2023-04-24T03:22:02;97091.28;;;11.03
71960;BMP280;59832;51.146;14.024;2023-04-24T03:24:28;97091.25;;;10.99
71960;BMP280;59832;51.146;14.024;2023-04-24T03:26:55;97095.63;;;11.02
71960;BMP280;59832;51.146;14.024;2023-04-24T03:29:23;97096.31;;;11.06
71960;BMP280;59832;51.146;14.024;2023-04-24T03:31:49;97087.28;;;11.02
71960;BMP280;59832;51.146;14.024;2023-04-24T03:34:16;97090.91;;;11.04
71960;BMP280;59832;51.146;14.024;2023-04-24T03:36:42;97094.50;;;11.14
71960;BMP280;59832;51.146;14.024;2023-04-24T03:39:09;97099.25;;;11.12
71960;BMP280;59832;51.146;14.024;2023-04-24T03:41:36;97093.41;;;11.08
71960;BMP280;59832;51.146;14.024;2023-04-24T03:44:02;97093.44;;;11.11
71960;BMP280;59832;51.146;14.024;2023-04-24T03:46:29;97097.44;;;11.12
71960;BMP280;59832;51.146;14.024;2023-04-24T03:48:55;97105.75;;;11.16
71960;BMP280;59832;51.146;14.024;2023-04-24T03:51:22;97103.56;;;11.15
71960;BMP280;59832;51.146;14.024;2023-04-24T03:53:49;97098.84;;;11.17
71960;BMP280;59832;51.146;14.024;2023-04-24T03:56:16;97105.03;;;11.16
71960;BMP280;59832;51.146;14.024;2023-04-24T03:58:42;97114.50;;;11.15
71960;BMP280;59832;51.146;14.024;2023-04-24T04:01:09;97121.06;;;11.13
71960;BMP280;59832;51.146;14.024;2023-04-24T04:03:36;97119.63;;;11.12
71960;BMP280;59832;51.146;14.024;2023-04-24T04:06:03;97125.81;;;11.11
71960;BMP280;59832;51.146;14.024;2023-04-24T04:08:30;97127.59;;;11.14
71960;BMP280;59832;51.146;14.024;2023-04-24T04:10:56;97134.53;;;11.10
71960;BMP280;59832;51.146;14.024;2023-04-24T04:13:23;97130.53;;;11.12
71960;BMP280;59832;51.146;14.024;2023-04-24T04:15:49;97136.34;;;11.09
71960;BMP280;59832;51.146;14.024;2023-04-24T04:18:16;97142.91;;;11.10
71960;BMP280;59832;51.146;14.024;2023-04-24T04:20:43;97134.19;;;11.11
71960;BMP280;59832;51.146;14.024;2023-04-24T04:23:09;97137.78;;;11.17
71960;BMP280;59832;51.146;14.024;2023-04-24T04:25:35;97143.22;;;11.26
71960;BMP280;59832;51.146;14.024;2023-04-24T04:28:02;97146.88;;;11.22
71960;BMP280;59832;51.146;14.024;2023-04-24T04:30:28;97137.41;;;11.22
71960;BMP280;59832;51.146;14.024;2023-04-24T04:32:59;97147.22;;;11.31
71960;BMP280;59832;51.146;14.024;2023-04-24T04:35:25;97145.34;;;11.39
71960;BMP280;59832;51.146;14.024;2023-04-24T04:37:52;97142.75;;;11.49
71960;BMP280;59832;51.146;14.024;2023-04-24T04:40:18;97142.00;;;11.52
71960;BMP280;59832;51.146;14.024;2023-04-24T04:42:45;97141.25;;;11.62
71960;BMP280;59832;51.146;14.024;2023-04-24T04:45:12;97137.22;;;11.68
71960;BMP280;59832;51.146;14.024;2023-04-24T04:47:38;97140.44;;;11.76
71960;BMP280;59832;51.146;14.024;2023-04-24T04:50:06;97129.84;;;11.84
71960;BMP280;59832;51.146;14.024;2023-04-24T04:52:32;97124.72;;;11.88
71960;BMP280;59832;51.146;14.024;2023-04-24T04:54:59;97126.50;;;11.95
71960;BMP280;59832;51.146;14.024;2023-04-24T04:57:25;97135.53;;;12.03
71960;BMP280;59832;51.146;14.024;2023-04-24T04:59:51;97139.50;;;12.11
71960;BMP280;59832;51.146;14.024;2023-04-24T05:02:18;97144.94;;;12.16
71960;BMP280;59832;51.146;14.024;2023-04-24T05:04:44;97139.41;;;12.25
71960;BMP280;59832;51.146;14.024;2023-04-24T05:07:12;97143.00;;;12.31
71960;BMP280;59832;51.146;14.024;2023-04-24T05:09:38;97148.06;;;12.38
71960;BMP280;59832;51.146;14.024;2023-04-24T05:12:05;97150.59;;;12.38
71960;BMP280;59832;51.146;14.024;2023-04-24T05:14:31;97145.44;;;12.49
71960;BMP280;59832;51.146;14.024;2023-04-24T05:16:57;97150.13;;;12.54
71960;BMP280;59832;51.146;14.024;2023-04-24T05:19:24;97147.81;;;12.66
71960;BMP280;59832;51.146;14.024;2023-04-24T05:21:51;97152.22;;;12.66
71960;BMP280;59832;51.146;14.024;2023-04-24T05:24:17;97145.63;;;12.68
71960;BMP280;59832;51.146;14.024;2023-04-24T05:26:43;97147.84;;;12.63
71960;BMP280;59832;51.146;14.024;2023-04-24T05:29:10;97150.34;;;12.70
71960;BMP280;59832;51.146;14.024;2023-04-24T05:31:36;97147.47;;;12.68
71960;BMP280;59832;51.146;14.024;2023-04-24T05:34:03;97143.31;;;12.81
71960;BMP280;59832;51.146;14.024;2023-04-24T05:36:29;97147.59;;;12.91
71960;BMP280;59832;51.146;14.024;2023-04-24T05:38:57;97147.31;;;12.78
71960;BMP280;59832;51.146;14.024;2023-04-24T05:41:23;97148.00;;;12.86
71960;BMP280;59832;51.146;14.024;2023-04-24T05:43:49;97146.47;;;12.92
71960;BMP280;59832;51.146;14.024;2023-04-24T05:46:17;97143.59;;;12.87
71960;BMP280;59832;51.146;14.024;2023-04-24T05:48:43;97140.03;;;12.80
71960;BMP280;59832;51.146;14.024;2023-04-24T05:51:10;97148.72;;;12.90
71960;BMP280;59832;51.146;14.024;2023-04-24T05:53:36;97149.06;;;12.89
71960;BMP280;59832;51.146;14.024;2023-04-24T05:56:03;97144.41;;;12.80
71960;BMP280;59832;51.146;14.024;2023-04-24T05:58:29;97149.75;;;12.93
71960;BMP280;59832;51.146;14.024;2023-04-24T06:00:56;97149.34;;;12.98
71960;BMP280;59832;51.146;14.024;2023-04-24T06:03:24;97149.97;;;13.05
71960;BMP280;59832;51.146;14.024;2023-04-24T06:05:51;97150.94;;;13.18
71960;BMP280;59832;51.146;14.024;2023-04-24T06:08:17;97147.28;;;13.19
71960;BMP280;59832;51.146;14.024;2023-04-24T06:10:44;97150.41;;;13.34
71960;BMP280;59832;51.146;14.024;2023-04-24T06:13:11;97149.13;;;13.49
71960;BMP280;59832;51.146;14.024;2023-04-24T06:15:37;97148.94;;;13.33
71960;BMP280;59832;51.146;14.024;2023-04-24T06:18:04;97152.78;;;13.48
71960;BMP280;59832;51.146;14.024;2023-04-24T06:20:30;97153.56;;;13.45
71960;BMP280;59832;51.146;14.024;2023-04-24T06:22:57;97149.97;;;13.39
71960;BMP280;59832;51.146;14.024;2023-04-24T06:25:27;97146.66;;;13.69
71960;BMP280;59832;51.146;14.024;2023-04-24T06:27:55;97152.63;;;13.89
71960;BMP280;59832;51.146;14.024;2023-04-24T06:30:22;97153.66;;;13.92
71960;BMP280;59832;51.146;14.024;2023-04-24T06:32:48;97155.69;;;14.04
71960;BMP280;59832;51.146;14.024;2023-04-24T06:35:15;97157.06;;;14.08
71960;BMP280;59832;51.146;14.024;2023-04-24T06:37:42;97155.13;;;14.16
71960;BMP280;59832;51.146;14.024;2023-04-24T06:40:09;97151.38;;;14.47
71960;BMP280;59832;51.146;14.024;2023-04-24T06:42:36;97163.44;;;15.06
71960;BMP280;59832;51.146;14.024;2023-04-24T06:45:02;97146.97;;;15.26
71960;BMP280;59832;51.146;14.024;2023-04-24T06:47:29;97149.00;;;15.67
71960;BMP280;59832;51.146;14.024;2023-04-24T06:49:56;97143.41;;;15.72
71960;BMP280;59832;51.146;14.024;2023-04-24T06:52:23;97138.44;;;15.65
71960;BMP280;59832;51.146;14.024;2023-04-24T06:54:49;97137.25;;;15.18
71960;BMP280;59832;51.146;14.024;2023-04-24T06:57:18;97144.75;;;14.89
71960;BMP280;59832;51.146;14.024;2023-04-24T06:59:44;97144.09;;;15.05
71960;BMP280;59832;51.146;14.024;2023-04-24T07:02:11;97158.66;;;15.08
71960;BMP280;59832;51.146;14.024;2023-04-24T07:04:37;97150.34;;;15.40
71960;BMP280;59832;51.146;14.024;2023-04-24T07:07:04;97152.66;;;15.34
71960;BMP280;59832;51.146;14.024;2023-04-24T07:09:32;97151.47;;;15.39
71960;BMP280;59832;51.146;14.024;2023-04-24T07:12:01;97151.94;;;15.34
71960;BMP280;59832;51.146;14.024;2023-04-24T07:14:27;97154.25;;;15.28
71960;BMP280;59832;51.146;14.024;2023-04-24T07:16:54;97152.34;;;15.12
71960;BMP280;59832;51.146;14.024;2023-04-24T07:19:20;97160.44;;;15.11
71960;BMP280;59832;51.146;14.024;2023-04-24T07:21:47;97164.38;;;14.96
71960;BMP280;59832;51.146;14.024;2023-04-24T07:24:13;97165.50;;;15.14
71960;BMP280;59832;51.146;14.024;2023-04-24T07:26:40;97162.50;;;15.00
71960;BMP280;59832;51.146;14.024;2023-04-24T07:29:07;97165.69;;;15.04
71960;BMP280;59832;51.146;14.024;2023-04-24T07:31:33;97168.44;;;15.13
71960;BMP280;59832;51.146;14.024;2023-04-24T07:34:00;97162.72;;;15.25
71960;BMP280;59832;51.146;14.024;2023-04-24T07:36:27;97160.94;;;15.42
71960;BMP280;59832;51.146;14.024;2023-04-24T07:38:54;97163.59;;;15.54
71960;BMP280;59832;51.146;14.024;2023-04-24T07:41:22;97166.78;;;15.42
71960;BMP280;59832;51.146;14.024;2023-04-24T07:43:50;97160.03;;;15.32
71960;BMP280;59832;51.146;14.024;2023-04-24T07:46:17;97161.13;;;15.31
71960;BMP280;59832;51.146;14.024;2023-04-24T07:48:43;97160.16;;;15.25
71960;BMP280;59832;51.146;14.024;2023-04-24T07:51:10;97161.50;;;14.94
71960;BMP280;59832;51.146;14.024;2023-04-24T07:53:38;97169.84;;;14.98
71960;BMP280;59832;51.146;14.024;2023-04-24T07:56:04;97168.44;;;15.33
71960;BMP280;59832;51.146;14.024;2023-04-24T07:58:31;97166.47;;;15.20
71960;BMP280;59832;51.146;14.024;2023-04-24T08:00:57;97171.31;;;14.99
71960;BMP280;59832;51.146;14.024;2023-04-24T08:03:24;97176.53;;;15.11
71960;BMP280;59832;51.146;14.024;2023-04-24T08:05:51;97172.78;;;14.96
71960;BMP280;59832;51.146;14.024;2023-04-24T08:08:20;97171.88;;;14.87
71960;BMP280;59832;51.146;14.024;2023-04-24T08:10:47;97168.66;;;15.22
71960;BMP280;59832;51.146;14.024;2023-04-24T08:13:13;97161.31;;;15.40
71960;BMP280;59832;51.146;14.024;2023-04-24T08:15:40;97169.28;;;15.62
71960;BMP280;59832;51.146;14.024;2023-04-24T08:18:06;97170.47;;;15.57
71960;BMP280;59832;51.146;14.024;2023-04-24T08:20:34;97170.25;;;15.52
71960;BMP280;59832;51.146;14.024;2023-04-24T08:23:00;97172.41;;;15.53
71960;BMP280;59832;51.146;14.024;2023-04-24T08:25:27;97171.03;;;15.49
71960;BMP280;59832;51.146;14.024;2023-04-24T08:27:53;97166.66;;;15.65
71960;BMP280;59832;51.146;14.024;2023-04-24T08:30:20;97170.41;;;15.45
71960;BMP280;59832;51.146;14.024;2023-04-24T08:32:47;97170.56;;;15.54
71960;BMP280;59832;51.146;14.024;2023-04-24T08:35:13;97169.28;;;15.62
71960;BMP280;59832;51.146;14.024;2023-04-24T08:37:40;97164.81;;;15.30
71960;BMP280;59832;51.146;14.024;2023-04-24T08:40:13;97168.19;;;15.27
71960;BMP280;59832;51.146;14.024;2023-04-24T08:42:44;97174.06;;;15.08
71960;BMP280;59832;51.146;14.024;2023-04-24T08:45:12;97169.16;;;15.13
71960;BMP280;59832;51.146;14.024;2023-04-24T08:47:40;97175.16;;;14.87
71960;BMP280;59832;51.146;14.024;2023-04-24T08:50:08;97172.53;;;14.71
71960;BMP280;59832;51.146;14.024;2023-04-24T08:56:15;97169.09;;;14.77
71960;BMP280;59832;51.146;14.024;2023-04-24T08:58:43;97174.13;;;14.85
71960;BMP280;59832;51.146;14.024;2023-04-24T09:01:09;97169.06;;;14.81
71960;BMP280;59832;51.146;14.024;2023-04-24T09:03:36;97173.50;;;14.77
71960;BMP280;59832;51.146;14.024;2023-04-24T09:06:06;97168.81;;;14.75
71960;BMP280;59832;51.146;14.024;2023-04-24T09:08:33;97167.72;;;14.73
71960;BMP280;59832;51.146;14.024;2023-04-24T09:10:59;97175.44;;;14.50
71960;BMP280;59832;51.146;14.024;2023-04-24T09:13:30;97167.22;;;14.39
71960;BMP280;59832;51.146;14.024;2023-04-24T09:15:56;97177.38;;;14.19
71960;BMP280;59832;51.146;14.024;2023-04-24T09:18:23;97184.00;;;13.93
71960;BMP280;59832;51.146;14.024;2023-04-24T09:21:04;97184.22;;;14.02
71960;BMP280;59832;51.146;14.024;2023-04-24T09:23:32;97182.47;;;13.69
71960;BMP280;59832;51.146;14.024;2023-04-24T09:26:00;97182.41;;;13.46
71960;BMP280;59832;51.146;14.024;2023-04-24T09:28:32;97180.38;;;13.30
71960;BMP280;59832;51.146;14.024;2023-04-24T09:31:04;97183.81;;;13.16
71960;BMP280;59832;51.146;14.024;2023-04-24T09:33:30;97180.13;;;13.21
71960;BMP280;59832;51.146;14.024;2023-04-24T09:35:57;97186.22;;;12.97
71960;BMP280;59832;51.146;14.024;2023-04-24T09:38:36;97174.78;;;13.05
71960;BMP280;59832;51.146;14.024;2023-04-24T09:41:05;97180.13;;;13.21
71960;BMP280;59832;51.146;14.024;2023-04-24T09:43:32;97176.84;;;13.51
71960;BMP280;59832;51.146;14.024;2023-04-24T09:46:04;97177.66;;;13.74
71960;BMP280;59832;51.146;14.024;2023-04-24T09:48:33;97176.06;;;14.11
71960;BMP280;59832;51.146;14.024;2023-04-24T09:51:00;97185.63;;;14.30
71960;BMP280;59832;51.146;14.024;2023-04-24T09:53:27;97186.84;;;14.45
71960;BMP280;59832;51.146;14.024;2023-04-24T09:55:54;97179.38;;;14.54
71960;BMP280;59832;51.146;14.024;2023-04-24T09:58:28;97188.22;;;14.73
71960;BMP280;59832;51.146;14.024;2023-04-24T10:00:56;97180.75;;;14.82
71960;BMP280;59832;51.146;14.024;2023-04-24T10:03:26;97178.50;;;14.84
71960;BMP280;59832;51.146;14.024;2023-04-24T10:06:00;97179.34;;;14.77
71960;BMP280;59832;51.146;14.024;2023-04-24T10:08:33;97167.94;;;14.39
71960;BMP280;59832;51.146;14.024;2023-04-24T10:10:59;97179.34;;;14.35
71960;BMP280;59832;51.146;14.024;2023-04-24T10:13:26;97177.72;;;14.21
71960;BMP280;59832;51.146;14.024;2023-04-24T10:15:53;97173.72;;;14.20
71960;BMP280;59832;51.146;14.024;2023-04-24T10:18:20;97180.28;;;14.21
71960;BMP280;59832;51.146;14.024;2023-04-24T10:20:47;97176.47;;;14.33
71960;BMP280;59832;51.146;14.024;2023-04-24T10:23:14;97180.44;;;14.34
71960;BMP280;59832;51.146;14.024;2023-04-24T10:25:41;97176.22;;;14.47
71960;BMP280;59832;51.146;14.024;2023-04-24T10:28:09;97173.75;;;14.63
71960;BMP280;59832;51.146;14.024;2023-04-24T10:30:38;97182.63;;;14.58
71960;BMP280;59832;51.146;14.024;2023-04-24T10:33:06;97182.66;;;14.55
71960;BMP280;59832;51.146;14.024;2023-04-24T10:35:36;97192.06;;;14.61
71960;BMP280;59832;51.146;14.024;2023-04-24T10:38:08;97196.72;;;14.47
71960;BMP280;59832;51.146;14.024;2023-04-24T10:40:35;97190.06;;;14.72
71960;BMP280;59832;51.146;14.024;2023-04-24T10:43:03;97194.59;;;15.04
71960;BMP280;59832;51.146;14.024;2023-04-24T10:45:34;97189.06;;;15.06
71960;BMP280;59832;51.146;14.024;2023-04-24T10:48:05;97188.75;;;14.64
71960;BMP280;59832;51.146;14.024;2023-04-24T10:50:46;97191.13;;;14.75
71960;BMP280;59832;51.146;14.024;2023-04-24T10:53:17;97188.16;;;14.96
71960;BMP280;59832;51.146;14.024;2023-04-24T10:56:06;97178.00;;;15.48
71960;BMP280;59832;51.146;14.024;2023-04-24T10:58:41;97170.81;;;16.08
71960;BMP280;59832;51.146;14.024;2023-04-24T11:01:28;97166.41;;;16.53
71960;BMP280;59832;51.146;14.024;2023-04-24T11:03:57;97162.78;;;16.38
71960;BMP280;59832;51.146;14.024;2023-04-24T11:06:34;97158.13;;;16.17
71960;BMP280;59832;51.146;14.024;2023-04-24T11:09:05;97169.13;;;16.17
71960;BMP280;59832;51.146;14.024;2023-04-24T11:11:32;97166.91;;;16.19
71960;BMP280;59832;51.146;14.024;2023-04-24T11:16:30;97158.34;;;16.10
71960;BMP280;59832;51.146;14.024;2023-04-24T11:19:05;97158.66;;;15.96
71960;BMP280;59832;51.146;14.024;2023-04-24T11:21:49;97157.38;;;15.88
71960;BMP280;59832;51.146;14.024;2023-04-24T11:26:54;97161.41;;;16.05
71960;BMP280;59832;51.146;14.024;2023-04-24T11:29:21;97158.97;;;15.81
71960;BMP280;59832;51.146;14.024;2023-04-24T11:31:49;97160.66;;;15.72
71960;BMP280;59832;51.146;14.024;2023-04-24T11:34:18;97162.72;;;15.45
71960;BMP280;59832;51.146;14.024;2023-04-24T11:36:45;97169.59;;;15.48
71960;BMP280;59832;51.146;14.024;2023-04-24T11:39:13;97164.84;;;15.46
71960;BMP280;59832;51.146;14.024;2023-04-24T11:41:39;97170.28;;;15.32
71960;BMP280;59832;51.146;14.024;2023-04-24T11:44:08;97162.59;;;15.32
71960;BMP280;59832;51.146;14.024;2023-04-24T11:46:35;97168.03;;;14.95
71960;BMP280;59832;51.146;14.024;2023-04-24T11:49:02;97170.03;;;14.44
71960;BMP280;59832;51.146;14.024;2023-04-24T11:51:28;97166.38;;;14.45
71960;BMP280;59832;51.146;14.024;2023-04-24T11:54:07;97175.16;;;14.87
71960;BMP280;59832;51.146;14.024;2023-04-24T11:56:34;97168.78;;;15.15
71960;BMP280;59832;51.146;14.024;2023-04-24T11:59:04;97157.97;;;15.43
71960;BMP280;59832;51.146;14.024;2023-04-24T12:01:42;97159.09;;;15.58
71960;BMP280;59832;51.146;14.024;2023-04-24T12:04:09;97163.84;;;15.60
71960;BMP280;59832;51.146;14.024;2023-04-24T12:06:36;97167.59;;;15.55
71960;BMP280;59832;51.146;14.024;2023-04-24T12:09:02;97157.72;;;15.38
71960;BMP280;59832;51.146;14.024;2023-04-24T12:11:53;97158.28;;;15.09
71960;BMP280;59832;51.146;14.024;2023-04-24T12:14:20;97162.59;;;15.12
71960;BMP280;59832;51.146;14.024;2023-04-24T12:16:48;97154.13;;;15.15
71960;BMP280;59832;51.146;14.024;2023-04-24T12:19:21;97163.47;;;15.77
71960;BMP280;59832;51.146;14.024;2023-04-24T12:22:02;97160.06;;;16.29
71960;BMP280;59832;51.146;14.024;2023-04-24T12:24:29;97151.06;;;16.21
71960;BMP280;59832;51.146;14.024;2023-04-24T12:26:57;97157.25;;;16.23
71960;BMP280;59832;51.146;14.024;2023-04-24T12:29:24;97152.69;;;16.15
71960;BMP280;59832;51.146;14.024;2023-04-24T12:31:51;97157.13;;;15.82
71960;BMP280;59832;51.146;14.024;2023-04-24T12:34:19;97148.94;;;15.55
71960;BMP280;59832;51.146;14.024;2023-04-24T12:36:47;97159.50;;;15.57
71960;BMP280;59832;51.146;14.024;2023-04-24T12:39:17;97150.50;;;15.33
71960;BMP280;59832;51.146;14.024;2023-04-24T12:42:11;97162.72;;;15.25
71960;BMP280;59832;51.146;14.024;2023-04-24T12:44:37;97166.41;;;15.24
71960;BMP280;59832;51.146;14.024;2023-04-24T12:47:04;97175.22;;;15.03
71960;BMP280;59832;51.146;14.024;2023-04-24T12:49:30;97163.03;;;14.91
71960;BMP280;59832;51.146;14.024;2023-04-24T12:51:57;97169.63;;;14.89
71960;BMP280;59832;51.146;14.024;2023-04-24T12:54:24;97165.28;;;14.86
71960;BMP280;59832;51.146;14.024;2023-04-24T12:56:50;97167.75;;;14.93
71960;BMP280;59832;51.146;14.024;2023-04-24T12:59:17;97159.50;;;15.21
71960;BMP280;59832;51.146;14.024;2023-04-24T13:01:43;97153.31;;;15.54
71960;BMP280;59832;51.146;14.024;2023-04-24T13:04:10;97146.69;;;15.73
71960;BMP280;59832;51.146;14.024;2023-04-24T13:06:36;97154.38;;;15.89
71960;BMP280;59832;51.146;14.024;2023-04-24T13:09:03;97146.69;;;15.73
71960;BMP280;59832;51.146;14.024;2023-04-24T13:11:29;97153.25;;;15.58
71960;BMP280;59832;51.146;14.024;2023-04-24T13:13:56;97144.28;;;15.66
71960;BMP280;59832;51.146;14.024;2023-04-24T13:16:22;97133.56;;;15.71
71960;BMP280;59832;51.146;14.024;2023-04-24T13:18:49;97141.50;;;15.60
71960;BMP280;59832;51.146;14.024;2023-04-24T13:21:16;97134.03;;;15.66
71960;BMP280;59832;51.146;14.024;2023-04-24T13:23:42;97131.94;;;16.09
71960;BMP280;59832;51.146;14.024;2023-04-24T13:26:09;97143.78;;;16.19
71960;BMP280;59832;51.146;14.024;2023-04-24T13:28:36;97137.84;;;16.06
71960;BMP280;59832;51.146;14.024;2023-04-24T13:31:02;97137.00;;;15.80
71960;BMP280;59832;51.146;14.024;2023-04-24T13:33:29;97125.78;;;15.74
71960;BMP280;59832;51.146;14.024;2023-04-24T13:35:55;97130.56;;;15.56
71960;BMP280;59832;51.146;14.024;2023-04-24T13:38:21;97130.75;;;15.65
71960;BMP280;59832;51.146;14.024;2023-04-24T13:40:48;97124.72;;;15.56
71960;BMP280;59832;51.146;14.024;2023-04-24T13:43:16;97127.13;;;15.63
71960;BMP280;59832;51.146;14.024;2023-04-24T13:45:42;97121.75;;;15.73
71960;BMP280;59832;51.146;14.024;2023-04-24T13:48:09;97122.97;;;15.85
71960;BMP280;59832;51.146;14.024;2023-04-24T13:50:35;97129.44;;;15.73
71960;BMP280;59832;51.146;14.024;2023-04-24T13:53:02;97125.03;;;15.58
71960;BMP280;59832;51.146;14.024;2023-04-24T13:55:29;97125.19;;;15.67
71960;BMP280;59832;51.146;14.024;2023-04-24T13:57:55;97122.81;;;15.60
71960;BMP280;59832;51.146;14.024;2023-04-24T14:00:22;97120.75;;;15.87
71960;BMP280;59832;51.146;14.024;2023-04-24T14:02:48;97132.00;;;16.06
71960;BMP280;59832;51.146;14.024;2023-04-24T14:05:15;97127.50;;;16.26
71960;BMP280;59832;51.146;14.024;2023-04-24T14:07:42;97119.06;;;16.25